sensor_id;sensor_type;location;lat;lon;timestamp;P1;durP1;ratioP1;P2;durP2;ratioP2
75073;SDS011;63652;51.526;5.080;2023-12-07T00:00:31;12.02;;;6.85;;
75073;SDS011;63652;51.526;5.080;2023-12-07T00:02:57;13.25;;;5.90;;
75073;SDS011;63652;51.526;5.080;2023-12-07T00:05:22;20.90;;;7.65;;
75073;SDS011;63652;51.526;5.080;2023-12-07T00:07:47;13.77;;;7.40;;
75073;SDS011;63652;51.526;5.080;2023-12-07T00:10:13;16.57;;;7.00;;
75073;SDS011;63652;51.526;5.080;2023-12-07T00:12:38;13.68;;;7.57;;
75073;SDS011;63652;51.526;5.080;2023-12-07T00:15:03;10.40;;;5.63;;
75073;SDS011;63652;51.526;5.080;2023-12-07T00:17:29;11.27;;;6.07;;
75073;SDS011;63652;51.526;5.080;2023-12-07T00:19:54;13.63;;;7.47;;
75073;SDS011;63652;51.526;5.080;2023-12-07T00:22:20;19.63;;;7.88;;
75073;SDS011;63652;51.526;5.080;2023-12-07T00:24:46;11.73;;;5.88;;
75073;SDS011;63652;51.526;5.080;2023-12-07T00:27:11;12.43;;;6.07;;
75073;SDS011;63652;51.526;5.080;2023-12-07T00:29:37;13.10;;;6.80;;
75073;SDS011;63652;51.526;5.080;2023-12-07T00:32:02;12.70;;;7.63;;
75073;SDS011;63652;51.526;5.080;2023-12-07T00:34:28;14.38;;;6.50;;
75073;SDS011;63652;51.526;5.080;2023-12-07T00:36:53;17.23;;;7.73;;
75073;SDS011;63652;51.526;5.080;2023-12-07T00:39:18;13.50;;;7.00;;
75073;SDS011;63652;51.526;5.080;2023-12-07T00:41:44;13.50;;;5.75;;
75073;SDS011;63652;51.526;5.080;2023-12-07T00:44:09;13.93;;;5.80;;
75073;SDS011;63652;51.526;5.080;2023-12-07T00:46:34;8.93;;;5.57;;
75073;SDS011;63652;51.526;5.080;2023-12-07T00:48:59;10.95;;;6.40;;
75073;SDS011;63652;51.526;5.080;2023-12-07T00:51:25;12.15;;;6.10;;
75073;SDS011;63652;51.526;5.080;2023-12-07T00:53:50;12.27;;;6.40;;
75073;SDS011;63652;51.526;5.080;2023-12-07T00:56:16;12.40;;;6.13;;
75073;SDS011;63652;51.526;5.080;2023-12-07T00:58:41;10.60;;;6.17;;
75073;SDS011;63652;51.526;5.080;2023-12-07T01:01:06;11.88;;;6.65;;
75073;SDS011;63652;51.526;5.080;2023-12-07T01:03:31;16.57;;;5.73;;
75073;SDS011;63652;51.526;5.080;2023-12-07T01:05:57;14.30;;;6.85;;
75073;SDS011;63652;51.526;5.080;2023-12-07T01:08:22;11.60;;;6.97;;
75073;SDS011;63652;51.526;5.080;2023-12-07T01:10:47;12.67;;;7.10;;
75073;SDS011;63652;51.526;5.080;2023-12-07T01:13:12;15.70;;;6.90;;
75073;SDS011;63652;51.526;5.080;2023-12-07T01:15:38;11.80;;;7.07;;
75073;SDS011;63652;51.526;5.080;2023-12-07T01:18:03;14.20;;;6.87;;
75073;SDS011;63652;51.526;5.080;2023-12-07T01:20:28;11.07;;;6.13;;
75073;SDS011;63652;51.526;5.080;2023-12-07T01:22:53;14.55;;;7.43;;
75073;SDS011;63652;51.526;5.080;2023-12-07T01:25:19;15.70;;;7.47;;
75073;SDS011;63652;51.526;5.080;2023-12-07T01:27:45;15.65;;;8.23;;
75073;SDS011;63652;51.526;5.080;2023-12-07T01:30:10;13.70;;;7.07;;
75073;SDS011;63652;51.526;5.080;2023-12-07T01:32:35;13.02;;;6.97;;
75073;SDS011;63652;51.526;5.080;2023-12-07T01:35:01;13.93;;;6.45;;
75073;SDS011;63652;51.526;5.080;2023-12-07T01:37:26;15.40;;;7.47;;
75073;SDS011;63652;51.526;5.080;2023-12-07T01:39:53;14.65;;;7.78;;
75073;SDS011;63652;51.526;5.080;2023-12-07T01:42:18;19.42;;;8.05;;
75073;SDS011;63652;51.526;5.080;2023-12-07T01:44:43;14.88;;;7.85;;
75073;SDS011;63652;51.526;5.080;2023-12-07T01:47:08;11.97;;;7.57;;
75073;SDS011;63652;51.526;5.080;2023-12-07T01:49:35;15.32;;;8.18;;
75073;SDS011;63652;51.526;5.080;2023-12-07T01:52:01;16.10;;;6.95;;
75073;SDS011;63652;51.526;5.080;2023-12-07T01:54:27;19.63;;;9.23;;
75073;SDS011;63652;51.526;5.080;2023-12-07T01:56:52;25.05;;;10.52;;
75073;SDS011;63652;51.526;5.080;2023-12-07T01:59:17;25.40;;;11.13;;
75073;SDS011;63652;51.526;5.080;2023-12-07T02:01:43;29.83;;;10.90;;
75073;SDS011;63652;51.526;5.080;2023-12-07T02:04:09;32.15;;;10.27;;
75073;SDS011;63652;51.526;5.080;2023-12-07T02:06:34;31.35;;;11.60;;
75073;SDS011;63652;51.526;5.080;2023-12-07T02:09:00;22.38;;;9.20;;
75073;SDS011;63652;51.526;5.080;2023-12-07T02:11:25;30.33;;;12.30;;
75073;SDS011;63652;51.526;5.080;2023-12-07T02:13:50;33.73;;;10.60;;
75073;SDS011;63652;51.526;5.080;2023-12-07T02:16:30;25.55;;;11.10;;
75073;SDS011;63652;51.526;5.080;2023-12-07T02:21:25;27.42;;;11.27;;
75073;SDS011;63652;51.526;5.080;2023-12-07T02:24:07;32.00;;;11.00;;
75073;SDS011;63652;51.526;5.080;2023-12-07T02:26:36;40.95;;;12.27;;
75073;SDS011;63652;51.526;5.080;2023-12-07T02:29:02;23.08;;;9.63;;
75073;SDS011;63652;51.526;5.080;2023-12-07T02:31:28;30.58;;;11.30;;
75073;SDS011;63652;51.526;5.080;2023-12-07T02:33:53;24.60;;;11.25;;
75073;SDS011;63652;51.526;5.080;2023-12-07T02:36:19;25.30;;;11.05;;
75073;SDS011;63652;51.526;5.080;2023-12-07T02:38:45;28.30;;;11.30;;
75073;SDS011;63652;51.526;5.080;2023-12-07T02:41:11;40.35;;;12.52;;
75073;SDS011;63652;51.526;5.080;2023-12-07T02:43:36;37.78;;;11.10;;
75073;SDS011;63652;51.526;5.080;2023-12-07T02:46:02;22.95;;;10.52;;
75073;SDS011;63652;51.526;5.080;2023-12-07T02:48:28;32.50;;;11.32;;
75073;SDS011;63652;51.526;5.080;2023-12-07T02:50:54;32.88;;;11.55;;
75073;SDS011;63652;51.526;5.080;2023-12-07T02:53:19;30.92;;;11.88;;
75073;SDS011;63652;51.526;5.080;2023-12-07T02:55:45;25.02;;;11.13;;
75073;SDS011;63652;51.526;5.080;2023-12-07T02:58:10;26.15;;;10.35;;
75073;SDS011;63652;51.526;5.080;2023-12-07T03:00:35;28.30;;;12.32;;
75073;SDS011;63652;51.526;5.080;2023-12-07T03:03:01;25.33;;;11.40;;
75073;SDS011;63652;51.526;5.080;2023-12-07T03:05:26;32.55;;;10.95;;
75073;SDS011;63652;51.526;5.080;2023-12-07T03:07:54;26.33;;;10.57;;
75073;SDS011;63652;51.526;5.080;2023-12-07T03:10:20;25.27;;;9.80;;
75073;SDS011;63652;51.526;5.080;2023-12-07T03:12:45;48.73;;;11.73;;
75073;SDS011;63652;51.526;5.080;2023-12-07T03:15:10;29.35;;;9.82;;
75073;SDS011;63652;51.526;5.080;2023-12-07T03:17:38;26.77;;;9.60;;
75073;SDS011;63652;51.526;5.080;2023-12-07T03:20:04;33.92;;;9.68;;
75073;SDS011;63652;51.526;5.080;2023-12-07T03:22:30;21.77;;;8.70;;
75073;SDS011;63652;51.526;5.080;2023-12-07T03:24:55;23.95;;;9.40;;
75073;SDS011;63652;51.526;5.080;2023-12-07T03:27:24;26.52;;;9.60;;
75073;SDS011;63652;51.526;5.080;2023-12-07T03:29:49;23.25;;;9.18;;
75073;SDS011;63652;51.526;5.080;2023-12-07T03:32:16;22.45;;;8.70;;
75073;SDS011;63652;51.526;5.080;2023-12-07T03:34:41;24.55;;;10.75;;
75073;SDS011;63652;51.526;5.080;2023-12-07T03:37:07;23.90;;;8.68;;
75073;SDS011;63652;51.526;5.080;2023-12-07T03:39:32;26.42;;;7.43;;
75073;SDS011;63652;51.526;5.080;2023-12-07T03:41:58;26.95;;;9.23;;
75073;SDS011;63652;51.526;5.080;2023-12-07T03:44:23;19.38;;;7.40;;
75073;SDS011;63652;51.526;5.080;2023-12-07T03:46:54;26.15;;;8.00;;
75073;SDS011;63652;51.526;5.080;2023-12-07T03:49:20;15.80;;;6.72;;
75073;SDS011;63652;51.526;5.080;2023-12-07T03:51:45;14.52;;;7.40;;
75073;SDS011;63652;51.526;5.080;2023-12-07T03:54:11;19.45;;;7.13;;
75073;SDS011;63652;51.526;5.080;2023-12-07T03:56:37;18.50;;;7.30;;
75073;SDS011;63652;51.526;5.080;2023-12-07T03:59:02;23.48;;;7.43;;
75073;SDS011;63652;51.526;5.080;2023-12-07T04:01:28;21.40;;;7.53;;
75073;SDS011;63652;51.526;5.080;2023-12-07T04:03:54;17.77;;;6.78;;
75073;SDS011;63652;51.526;5.080;2023-12-07T04:06:20;22.95;;;6.80;;
75073;SDS011;63652;51.526;5.080;2023-12-07T04:08:46;20.83;;;7.65;;
75073;SDS011;63652;51.526;5.080;2023-12-07T04:11:11;14.60;;;6.18;;
75073;SDS011;63652;51.526;5.080;2023-12-07T04:13:37;20.77;;;7.65;;
75073;SDS011;63652;51.526;5.080;2023-12-07T04:16:02;16.63;;;6.53;;
75073;SDS011;63652;51.526;5.080;2023-12-07T04:18:31;28.70;;;6.35;;
75073;SDS011;63652;51.526;5.080;2023-12-07T04:20:56;17.90;;;6.85;;
75073;SDS011;63652;51.526;5.080;2023-12-07T04:23:24;22.70;;;7.15;;
75073;SDS011;63652;51.526;5.080;2023-12-07T04:25:50;23.50;;;7.00;;
75073;SDS011;63652;51.526;5.080;2023-12-07T04:28:15;15.20;;;6.03;;
75073;SDS011;63652;51.526;5.080;2023-12-07T04:30:40;14.95;;;6.10;;
75073;SDS011;63652;51.526;5.080;2023-12-07T04:33:06;18.60;;;7.28;;
75073;SDS011;63652;51.526;5.080;2023-12-07T04:35:31;23.85;;;6.85;;
75073;SDS011;63652;51.526;5.080;2023-12-07T04:37:57;29.27;;;7.35;;
75073;SDS011;63652;51.526;5.080;2023-12-07T04:40:22;29.75;;;6.70;;
75073;SDS011;63652;51.526;5.080;2023-12-07T04:42:49;25.60;;;7.05;;
75073;SDS011;63652;51.526;5.080;2023-12-07T04:45:14;15.85;;;6.10;;
75073;SDS011;63652;51.526;5.080;2023-12-07T04:47:39;13.73;;;6.00;;
75073;SDS011;63652;51.526;5.080;2023-12-07T04:50:05;20.77;;;6.07;;
75073;SDS011;63652;51.526;5.080;2023-12-07T04:52:30;22.00;;;5.90;;
75073;SDS011;63652;51.526;5.080;2023-12-07T04:54:56;16.85;;;6.28;;
75073;SDS011;63652;51.526;5.080;2023-12-07T04:57:24;20.40;;;6.30;;
75073;SDS011;63652;51.526;5.080;2023-12-07T04:59:49;15.65;;;6.18;;
75073;SDS011;63652;51.526;5.080;2023-12-07T05:02:15;14.32;;;4.88;;
75073;SDS011;63652;51.526;5.080;2023-12-07T05:04:40;25.35;;;6.38;;
75073;SDS011;63652;51.526;5.080;2023-12-07T05:07:05;17.15;;;6.70;;
75073;SDS011;63652;51.526;5.080;2023-12-07T05:09:30;15.30;;;6.43;;
75073;SDS011;63652;51.526;5.080;2023-12-07T05:11:56;16.23;;;5.55;;
75073;SDS011;63652;51.526;5.080;2023-12-07T05:14:21;21.83;;;6.05;;
75073;SDS011;63652;51.526;5.080;2023-12-07T05:16:48;18.95;;;6.60;;
75073;SDS011;63652;51.526;5.080;2023-12-07T05:19:17;15.75;;;5.57;;
75073;SDS011;63652;51.526;5.080;2023-12-07T05:21:43;19.48;;;6.38;;
75073;SDS011;63652;51.526;5.080;2023-12-07T05:24:08;17.85;;;5.65;;
75073;SDS011;63652;51.526;5.080;2023-12-07T05:26:33;26.33;;;6.45;;
75073;SDS011;63652;51.526;5.080;2023-12-07T05:28:59;20.42;;;5.57;;
75073;SDS011;63652;51.526;5.080;2023-12-07T05:31:24;16.73;;;5.18;;
75073;SDS011;63652;51.526;5.080;2023-12-07T05:33:54;15.90;;;5.38;;
75073;SDS011;63652;51.526;5.080;2023-12-07T05:36:20;21.27;;;6.38;;
75073;SDS011;63652;51.526;5.080;2023-12-07T05:38:45;19.70;;;6.55;;
75073;SDS011;63652;51.526;5.080;2023-12-07T05:41:10;22.35;;;6.07;;
75073;SDS011;63652;51.526;5.080;2023-12-07T05:43:40;25.85;;;6.80;;
75073;SDS011;63652;51.526;5.080;2023-12-07T05:46:05;31.00;;;6.65;;
75073;SDS011;63652;51.526;5.080;2023-12-07T05:48:30;18.02;;;6.93;;
75073;SDS011;63652;51.526;5.080;2023-12-07T05:50:55;20.38;;;6.75;;
75073;SDS011;63652;51.526;5.080;2023-12-07T05:53:24;28.85;;;7.72;;
75073;SDS011;63652;51.526;5.080;2023-12-07T05:55:49;27.48;;;6.88;;
75073;SDS011;63652;51.526;5.080;2023-12-07T05:58:15;21.30;;;6.13;;
75073;SDS011;63652;51.526;5.080;2023-12-07T06:00:42;19.75;;;6.00;;
75073;SDS011;63652;51.526;5.080;2023-12-07T06:03:08;23.88;;;6.63;;
75073;SDS011;63652;51.526;5.080;2023-12-07T06:05:36;26.70;;;8.02;;
75073;SDS011;63652;51.526;5.080;2023-12-07T06:08:02;23.63;;;6.40;;
75073;SDS011;63652;51.526;5.080;2023-12-07T06:10:28;21.60;;;7.50;;
75073;SDS011;63652;51.526;5.080;2023-12-07T06:12:53;19.90;;;6.73;;
75073;SDS011;63652;51.526;5.080;2023-12-07T06:15:20;20.50;;;6.90;;
75073;SDS011;63652;51.526;5.080;2023-12-07T06:17:45;27.73;;;6.82;;
75073;SDS011;63652;51.526;5.080;2023-12-07T06:20:10;20.08;;;5.93;;
75073;SDS011;63652;51.526;5.080;2023-12-07T06:22:36;18.10;;;6.93;;
75073;SDS011;63652;51.526;5.080;2023-12-07T06:25:02;14.93;;;6.63;;
75073;SDS011;63652;51.526;5.080;2023-12-07T06:27:27;22.23;;;7.68;;
75073;SDS011;63652;51.526;5.080;2023-12-07T06:29:52;19.90;;;6.75;;
75073;SDS011;63652;51.526;5.080;2023-12-07T06:32:18;28.27;;;8.23;;
75073;SDS011;63652;51.526;5.080;2023-12-07T06:34:43;26.27;;;7.80;;
75073;SDS011;63652;51.526;5.080;2023-12-07T06:37:08;22.17;;;7.72;;
75073;SDS011;63652;51.526;5.080;2023-12-07T06:39:35;30.77;;;9.15;;
75073;SDS011;63652;51.526;5.080;2023-12-07T06:42:06;30.27;;;9.50;;
75073;SDS011;63652;51.526;5.080;2023-12-07T06:44:32;29.23;;;8.15;;
75073;SDS011;63652;51.526;5.080;2023-12-07T06:46:58;26.55;;;7.82;;
75073;SDS011;63652;51.526;5.080;2023-12-07T06:49:24;27.48;;;8.65;;
75073;SDS011;63652;51.526;5.080;2023-12-07T06:51:49;34.67;;;9.35;;
75073;SDS011;63652;51.526;5.080;2023-12-07T06:54:14;30.95;;;8.77;;
75073;SDS011;63652;51.526;5.080;2023-12-07T06:56:40;22.15;;;8.07;;
75073;SDS011;63652;51.526;5.080;2023-12-07T06:59:05;34.97;;;9.93;;
75073;SDS011;63652;51.526;5.080;2023-12-07T07:01:30;32.13;;;9.67;;
75073;SDS011;63652;51.526;5.080;2023-12-07T07:03:55;27.55;;;7.70;;
75073;SDS011;63652;51.526;5.080;2023-12-07T07:06:21;28.38;;;7.80;;
75073;SDS011;63652;51.526;5.080;2023-12-07T07:08:47;25.52;;;9.38;;
75073;SDS011;63652;51.526;5.080;2023-12-07T07:11:12;37.60;;;9.87;;
75073;SDS011;63652;51.526;5.080;2023-12-07T07:13:39;30.40;;;8.25;;
75073;SDS011;63652;51.526;5.080;2023-12-07T07:16:04;32.63;;;10.82;;
75073;SDS011;63652;51.526;5.080;2023-12-07T07:18:30;36.00;;;10.45;;
75073;SDS011;63652;51.526;5.080;2023-12-07T07:20:55;30.73;;;9.83;;
75073;SDS011;63652;51.526;5.080;2023-12-07T07:23:23;32.55;;;11.07;;
75073;SDS011;63652;51.526;5.080;2023-12-07T07:25:48;34.67;;;9.68;;
75073;SDS011;63652;51.526;5.080;2023-12-07T07:28:13;36.57;;;11.60;;
75073;SDS011;63652;51.526;5.080;2023-12-07T07:30:38;30.27;;;9.13;;
75073;SDS011;63652;51.526;5.080;2023-12-07T07:33:04;34.08;;;11.30;;
75073;SDS011;63652;51.526;5.080;2023-12-07T07:35:29;41.83;;;11.48;;
75073;SDS011;63652;51.526;5.080;2023-12-07T07:37:55;34.03;;;10.02;;
75073;SDS011;63652;51.526;5.080;2023-12-07T07:40:20;44.42;;;10.90;;
75073;SDS011;63652;51.526;5.080;2023-12-07T07:42:45;38.90;;;10.55;;
75073;SDS011;63652;51.526;5.080;2023-12-07T07:45:10;36.90;;;10.75;;
75073;SDS011;63652;51.526;5.080;2023-12-07T07:47:36;34.33;;;10.50;;
75073;SDS011;63652;51.526;5.080;2023-12-07T07:50:01;36.17;;;10.00;;
75073;SDS011;63652;51.526;5.080;2023-12-07T07:52:33;35.00;;;10.80;;
75073;SDS011;63652;51.526;5.080;2023-12-07T07:55:00;29.70;;;11.73;;
75073;SDS011;63652;51.526;5.080;2023-12-07T07:57:25;34.33;;;9.93;;
75073;SDS011;63652;51.526;5.080;2023-12-07T07:59:50;39.90;;;11.60;;
75073;SDS011;63652;51.526;5.080;2023-12-07T08:02:16;32.38;;;9.98;;
75073;SDS011;63652;51.526;5.080;2023-12-07T08:04:41;33.47;;;9.80;;
75073;SDS011;63652;51.526;5.080;2023-12-07T08:07:06;35.77;;;11.10;;
75073;SDS011;63652;51.526;5.080;2023-12-07T08:09:33;34.92;;;10.18;;
75073;SDS011;63652;51.526;5.080;2023-12-07T08:11:58;35.50;;;11.15;;
75073;SDS011;63652;51.526;5.080;2023-12-07T08:14:23;26.90;;;9.15;;
75073;SDS011;63652;51.526;5.080;2023-12-07T08:16:49;37.53;;;11.05;;
75073;SDS011;63652;51.526;5.080;2023-12-07T08:19:14;33.37;;;10.30;;
75073;SDS011;63652;51.526;5.080;2023-12-07T08:21:39;37.40;;;10.23;;
75073;SDS011;63652;51.526;5.080;2023-12-07T08:24:05;31.00;;;9.00;;
75073;SDS011;63652;51.526;5.080;2023-12-07T08:26:31;28.02;;;10.00;;
75073;SDS011;63652;51.526;5.080;2023-12-07T08:28:56;26.13;;;9.25;;
75073;SDS011;63652;51.526;5.080;2023-12-07T08:31:21;26.10;;;8.57;;
75073;SDS011;63652;51.526;5.080;2023-12-07T08:33:49;26.02;;;9.95;;
75073;SDS011;63652;51.526;5.080;2023-12-07T08:36:14;23.83;;;8.50;;
75073;SDS011;63652;51.526;5.080;2023-12-07T08:38:41;27.92;;;9.57;;
75073;SDS011;63652;51.526;5.080;2023-12-07T08:41:07;33.03;;;8.90;;
75073;SDS011;63652;51.526;5.080;2023-12-07T08:43:32;30.90;;;9.68;;
75073;SDS011;63652;51.526;5.080;2023-12-07T08:45:57;28.90;;;10.43;;
75073;SDS011;63652;51.526;5.080;2023-12-07T08:48:23;29.63;;;11.77;;
75073;SDS011;63652;51.526;5.080;2023-12-07T08:50:48;30.83;;;9.57;;
75073;SDS011;63652;51.526;5.080;2023-12-07T08:53:13;27.67;;;9.85;;
75073;SDS011;63652;51.526;5.080;2023-12-07T08:55:38;32.50;;;10.30;;
75073;SDS011;63652;51.526;5.080;2023-12-07T08:58:04;36.63;;;11.27;;
75073;SDS011;63652;51.526;5.080;2023-12-07T09:00:30;32.53;;;11.60;;
75073;SDS011;63652;51.526;5.080;2023-12-07T09:02:56;39.60;;;12.50;;
75073;SDS011;63652;51.526;5.080;2023-12-07T09:05:21;42.67;;;14.13;;
75073;SDS011;63652;51.526;5.080;2023-12-07T09:07:47;45.70;;;14.60;;
75073;SDS011;63652;51.526;5.080;2023-12-07T09:10:12;44.28;;;14.30;;
75073;SDS011;63652;51.526;5.080;2023-12-07T09:12:38;37.03;;;12.40;;
75073;SDS011;63652;51.526;5.080;2023-12-07T09:15:03;31.75;;;11.73;;
75073;SDS011;63652;51.526;5.080;2023-12-07T09:17:29;35.70;;;13.30;;
75073;SDS011;63652;51.526;5.080;2023-12-07T09:19:54;37.60;;;12.30;;
75073;SDS011;63652;51.526;5.080;2023-12-07T09:22:19;35.72;;;12.48;;
75073;SDS011;63652;51.526;5.080;2023-12-07T09:24:45;35.00;;;12.73;;
75073;SDS011;63652;51.526;5.080;2023-12-07T09:27:11;38.03;;;14.90;;
75073;SDS011;63652;51.526;5.080;2023-12-07T09:29:36;35.33;;;12.98;;
75073;SDS011;63652;51.526;5.080;2023-12-07T09:32:02;39.95;;;13.70;;
75073;SDS011;63652;51.526;5.080;2023-12-07T09:34:28;52.67;;;15.85;;
75073;SDS011;63652;51.526;5.080;2023-12-07T09:37:08;36.08;;;14.70;;
75073;SDS011;63652;51.526;5.080;2023-12-07T09:39:34;42.15;;;13.73;;
75073;SDS011;63652;51.526;5.080;2023-12-07T09:42:00;33.05;;;11.52;;
75073;SDS011;63652;51.526;5.080;2023-12-07T09:44:25;27.83;;;10.00;;
75073;SDS011;63652;51.526;5.080;2023-12-07T09:46:50;32.78;;;10.68;;
75073;SDS011;63652;51.526;5.080;2023-12-07T09:49:16;26.63;;;9.80;;
75073;SDS011;63652;51.526;5.080;2023-12-07T09:51:42;25.77;;;9.98;;
75073;SDS011;63652;51.526;5.080;2023-12-07T09:54:08;13.45;;;5.45;;
75073;SDS011;63652;51.526;5.080;2023-12-07T09:56:33;18.03;;;6.87;;
75073;SDS011;63652;51.526;5.080;2023-12-07T09:58:58;23.53;;;8.80;;
75073;SDS011;63652;51.526;5.080;2023-12-07T10:01:33;26.33;;;9.73;;
75073;SDS011;63652;51.526;5.080;2023-12-07T10:04:18;27.58;;;10.70;;
75073;SDS011;63652;51.526;5.080;2023-12-07T10:09:15;15.15;;;6.63;;
75073;SDS011;63652;51.526;5.080;2023-12-07T10:11:41;22.63;;;9.70;;
75073;SDS011;63652;51.526;5.080;2023-12-07T10:14:07;22.40;;;8.95;;
75073;SDS011;63652;51.526;5.080;2023-12-07T10:16:32;23.98;;;9.45;;
75073;SDS011;63652;51.526;5.080;2023-12-07T10:21:53;11.57;;;4.00;;
75073;SDS011;63652;51.526;5.080;2023-12-07T10:24:19;25.08;;;9.32;;
75073;SDS011;63652;51.526;5.080;2023-12-07T10:26:45;26.38;;;9.23;;
75073;SDS011;63652;51.526;5.080;2023-12-07T10:29:11;19.88;;;7.65;;
75073;SDS011;63652;51.526;5.080;2023-12-07T10:31:36;27.60;;;8.35;;
75073;SDS011;63652;51.526;5.080;2023-12-07T10:34:02;24.38;;;9.00;;
75073;SDS011;63652;51.526;5.080;2023-12-07T10:36:27;22.92;;;8.88;;
75073;SDS011;63652;51.526;5.080;2023-12-07T10:38:53;27.52;;;9.82;;
75073;SDS011;63652;51.526;5.080;2023-12-07T10:41:20;21.50;;;8.60;;
75073;SDS011;63652;51.526;5.080;2023-12-07T10:43:53;25.63;;;9.98;;
75073;SDS011;63652;51.526;5.080;2023-12-07T10:46:24;21.90;;;8.30;;
75073;SDS011;63652;51.526;5.080;2023-12-07T10:48:51;23.88;;;9.00;;
75073;SDS011;63652;51.526;5.080;2023-12-07T10:51:28;20.90;;;7.75;;
75073;SDS011;63652;51.526;5.080;2023-12-07T10:53:55;19.25;;;7.63;;
75073;SDS011;63652;51.526;5.080;2023-12-07T10:56:33;17.75;;;8.23;;
75073;SDS011;63652;51.526;5.080;2023-12-07T10:59:00;21.30;;;8.15;;
75073;SDS011;63652;51.526;5.080;2023-12-07T11:01:25;18.00;;;8.15;;
75073;SDS011;63652;51.526;5.080;2023-12-07T11:03:54;18.52;;;8.15;;
75073;SDS011;63652;51.526;5.080;2023-12-07T11:06:21;22.00;;;7.90;;
75073;SDS011;63652;51.526;5.080;2023-12-07T11:08:54;18.92;;;8.13;;
75073;SDS011;63652;51.526;5.080;2023-12-07T11:11:24;19.15;;;7.30;;
75073;SDS011;63652;51.526;5.080;2023-12-07T11:13:53;18.20;;;9.07;;
75073;SDS011;63652;51.526;5.080;2023-12-07T11:16:31;17.30;;;6.30;;
75073;SDS011;63652;51.526;5.080;2023-12-07T11:18:59;22.25;;;9.20;;
75073;SDS011;63652;51.526;5.080;2023-12-07T11:21:24;21.63;;;9.00;;
75073;SDS011;63652;51.526;5.080;2023-12-07T11:23:50;17.05;;;7.30;;
75073;SDS011;63652;51.526;5.080;2023-12-07T11:26:18;19.80;;;8.10;;
75073;SDS011;63652;51.526;5.080;2023-12-07T11:28:44;21.48;;;8.10;;
75073;SDS011;63652;51.526;5.080;2023-12-07T11:31:09;20.95;;;8.20;;
75073;SDS011;63652;51.526;5.080;2023-12-07T11:33:37;21.50;;;8.63;;
75073;SDS011;63652;51.526;5.080;2023-12-07T11:38:28;18.27;;;6.93;;
75073;SDS011;63652;51.526;5.080;2023-12-07T11:40:53;20.85;;;7.93;;
75073;SDS011;63652;51.526;5.080;2023-12-07T11:45:57;16.95;;;6.88;;
75073;SDS011;63652;51.526;5.080;2023-12-07T11:48:22;18.73;;;7.17;;
75073;SDS011;63652;51.526;5.080;2023-12-07T11:51:00;15.98;;;6.97;;
75073;SDS011;63652;51.526;5.080;2023-12-07T11:53:26;16.42;;;7.57;;
75073;SDS011;63652;51.526;5.080;2023-12-07T11:55:52;16.25;;;6.75;;
75073;SDS011;63652;51.526;5.080;2023-12-07T11:58:17;16.75;;;6.15;;
75073;SDS011;63652;51.526;5.080;2023-12-07T12:00:43;13.38;;;6.65;;
75073;SDS011;63652;51.526;5.080;2023-12-07T12:03:09;15.00;;;7.13;;
75073;SDS011;63652;51.526;5.080;2023-12-07T12:05:36;20.60;;;7.18;;
75073;SDS011;63652;51.526;5.080;2023-12-07T12:08:04;16.40;;;7.07;;
75073;SDS011;63652;51.526;5.080;2023-12-07T12:10:29;13.40;;;5.35;;
75073;SDS011;63652;51.526;5.080;2023-12-07T12:12:54;6.38;;;3.80;;
75073;SDS011;63652;51.526;5.080;2023-12-07T12:15:19;18.10;;;6.63;;
75073;SDS011;63652;51.526;5.080;2023-12-07T12:17:45;11.52;;;5.82;;
75073;SDS011;63652;51.526;5.080;2023-12-07T12:20:11;13.73;;;7.53;;
75073;SDS011;63652;51.526;5.080;2023-12-07T12:22:42;15.30;;;6.93;;
75073;SDS011;63652;51.526;5.080;2023-12-07T12:25:07;15.18;;;6.03;;
75073;SDS011;63652;51.526;5.080;2023-12-07T12:27:33;15.15;;;6.43;;
75073;SDS011;63652;51.526;5.080;2023-12-07T12:29:59;15.50;;;7.10;;
75073;SDS011;63652;51.526;5.080;2023-12-07T12:32:24;16.65;;;6.43;;
75073;SDS011;63652;51.526;5.080;2023-12-07T12:34:53;12.27;;;5.57;;
75073;SDS011;63652;51.526;5.080;2023-12-07T12:37:18;14.48;;;5.53;;
75073;SDS011;63652;51.526;5.080;2023-12-07T12:39:43;13.02;;;5.50;;
75073;SDS011;63652;51.526;5.080;2023-12-07T12:42:09;15.35;;;5.57;;
75073;SDS011;63652;51.526;5.080;2023-12-07T12:44:36;12.73;;;5.60;;
75073;SDS011;63652;51.526;5.080;2023-12-07T12:47:06;14.52;;;6.00;;
75073;SDS011;63652;51.526;5.080;2023-12-07T12:49:35;14.32;;;5.72;;
75073;SDS011;63652;51.526;5.080;2023-12-07T12:52:00;9.77;;;4.45;;
75073;SDS011;63652;51.526;5.080;2023-12-07T12:54:30;7.45;;;3.60;;
75073;SDS011;63652;51.526;5.080;2023-12-07T12:56:56;12.63;;;5.63;;
75073;SDS011;63652;51.526;5.080;2023-12-07T12:59:22;16.63;;;6.93;;
75073;SDS011;63652;51.526;5.080;2023-12-07T13:01:48;9.10;;;3.80;;
75073;SDS011;63652;51.526;5.080;2023-12-07T13:04:13;7.40;;;2.67;;
75073;SDS011;63652;51.526;5.080;2023-12-07T13:06:39;13.70;;;6.17;;
75073;SDS011;63652;51.526;5.080;2023-12-07T13:09:05;13.57;;;5.63;;
75073;SDS011;63652;51.526;5.080;2023-12-07T13:11:30;11.70;;;4.82;;
75073;SDS011;63652;51.526;5.080;2023-12-07T13:13:55;14.80;;;6.43;;
75073;SDS011;63652;51.526;5.080;2023-12-07T13:16:24;8.85;;;4.47;;
75073;SDS011;63652;51.526;5.080;2023-12-07T13:18:49;10.60;;;5.07;;
75073;SDS011;63652;51.526;5.080;2023-12-07T13:21:18;12.88;;;5.97;;
75073;SDS011;63652;51.526;5.080;2023-12-07T13:23:43;13.13;;;6.45;;
75073;SDS011;63652;51.526;5.080;2023-12-07T13:26:11;11.10;;;4.45;;
75073;SDS011;63652;51.526;5.080;2023-12-07T13:28:36;13.00;;;6.00;;
75073;SDS011;63652;51.526;5.080;2023-12-07T13:31:02;12.30;;;5.80;;
75073;SDS011;63652;51.526;5.080;2023-12-07T13:33:27;17.05;;;5.75;;
75073;SDS011;63652;51.526;5.080;2023-12-07T13:35:52;14.30;;;6.13;;
75073;SDS011;63652;51.526;5.080;2023-12-07T13:38:19;10.82;;;5.50;;
75073;SDS011;63652;51.526;5.080;2023-12-07T13:40:45;13.98;;;6.57;;
75073;SDS011;63652;51.526;5.080;2023-12-07T13:43:11;10.40;;;5.60;;
75073;SDS011;63652;51.526;5.080;2023-12-07T13:45:37;12.90;;;6.55;;
75073;SDS011;63652;51.526;5.080;2023-12-07T13:48:03;12.43;;;5.70;;
75073;SDS011;63652;51.526;5.080;2023-12-07T13:50:28;15.35;;;7.18;;
75073;SDS011;63652;51.526;5.080;2023-12-07T13:52:54;17.02;;;5.82;;
75073;SDS011;63652;51.526;5.080;2023-12-07T13:55:19;12.47;;;6.07;;
75073;SDS011;63652;51.526;5.080;2023-12-07T13:57:44;13.70;;;6.78;;
75073;SDS011;63652;51.526;5.080;2023-12-07T14:00:10;16.63;;;7.13;;
75073;SDS011;63652;51.526;5.080;2023-12-07T14:02:38;15.60;;;6.22;;
75073;SDS011;63652;51.526;5.080;2023-12-07T14:05:03;12.27;;;6.13;;
75073;SDS011;63652;51.526;5.080;2023-12-07T14:07:30;18.95;;;6.28;;
75073;SDS011;63652;51.526;5.080;2023-12-07T14:09:55;13.95;;;6.25;;
75073;SDS011;63652;51.526;5.080;2023-12-07T14:12:20;12.68;;;4.85;;
75073;SDS011;63652;51.526;5.080;2023-12-07T14:14:46;13.27;;;5.78;;
75073;SDS011;63652;51.526;5.080;2023-12-07T14:17:15;14.48;;;5.80;;
75073;SDS011;63652;51.526;5.080;2023-12-07T14:19:41;14.70;;;6.40;;
75073;SDS011;63652;51.526;5.080;2023-12-07T14:22:06;11.80;;;5.15;;
75073;SDS011;63652;51.526;5.080;2023-12-07T14:24:34;14.93;;;6.07;;
75073;SDS011;63652;51.526;5.080;2023-12-07T14:27:01;13.88;;;6.05;;
75073;SDS011;63652;51.526;5.080;2023-12-07T14:29:28;14.30;;;6.78;;
75073;SDS011;63652;51.526;5.080;2023-12-07T14:31:53;13.20;;;5.87;;
75073;SDS011;63652;51.526;5.080;2023-12-07T14:34:18;9.70;;;6.03;;
75073;SDS011;63652;51.526;5.080;2023-12-07T14:36:45;11.75;;;6.07;;